createdAt,value
2023-01-26T00:02:09.440Z,102196.63
2023-01-26T00:04:37.304Z,102204.09
2023-01-26T00:07:06.516Z,102197.53
2023-01-26T00:09:34.399Z,102200.16
2023-01-26T00:12:02.369Z,102199.91
2023-01-26T00:14:49.638Z,102197.22
2023-01-26T00:17:25.912Z,102197.06
2023-01-26T00:19:56.226Z,102186.66
2023-01-26T00:22:26.403Z,102192.94
2023-01-26T00:24:54.635Z,102186.09
2023-01-26T00:27:22.548Z,102183.13
2023-01-26T00:29:50.891Z,102172.63
2023-01-26T00:32:18.789Z,102165.66
2023-01-26T00:34:46.744Z,102167.34
2023-01-26T00:37:14.593Z,102160.28
2023-01-26T00:39:43.829Z,102164.53
2023-01-26T00:42:13.910Z,102154.03
2023-01-26T00:44:44.017Z,102159.38
2023-01-26T00:47:13.891Z,102162.59
2023-01-26T00:49:41.753Z,102158.47
2023-01-26T00:52:09.641Z,102153.47
2023-01-26T00:54:37.531Z,102153.22
2023-01-26T00:57:06.844Z,102154.78
2023-01-26T00:59:34.860Z,102151.69
2023-01-26T01:02:03.646Z,102154.69
2023-01-26T01:04:31.755Z,102153.72
2023-01-26T01:07:01.807Z,102155.34
2023-01-26T01:09:29.725Z,102148.66
2023-01-26T01:11:57.625Z,102154.03
2023-01-26T01:14:26.979Z,102148.47
2023-01-26T01:16:54.922Z,102140.72
2023-01-26T01:19:22.899Z,102134.78
2023-01-26T01:21:50.844Z,102138.88
2023-01-26T01:24:18.788Z,102138.38
2023-01-26T01:26:46.820Z,102133.63
2023-01-26T01:29:15.354Z,102126.28
2023-01-26T01:31:44.865Z,102130.03
2023-01-26T01:34:12.918Z,102126.59
2023-01-26T01:36:41.280Z,102123.53
2023-01-26T01:39:09.316Z,102116.72
2023-01-26T01:41:37.189Z,102122.63
2023-01-26T01:44:20.535Z,102116.75
2023-01-26T01:46:54.958Z,102114.94
2023-01-26T01:49:29.140Z,102116.50
2023-01-26T01:52:03.567Z,102111.44
2023-01-26T01:54:35.437Z,102118.91
2023-01-26T01:57:15.725Z,102115.03
2023-01-26T01:59:47.209Z,102109.22
2023-01-26T02:02:16.841Z,102106.00
2023-01-26T02:04:45.360Z,102110.75
2023-01-26T02:07:13.634Z,102099.19
2023-01-26T02:10:02.367Z,102101.81
2023-01-26T02:12:32.276Z,102093.88
2023-01-26T02:15:01.605Z,102087.03
2023-01-26T02:17:30.895Z,102087.81
2023-01-26T02:20:06.252Z,102087.66
2023-01-26T02:22:42.609Z,102082.84
2023-01-26T02:25:19.007Z,102070.88
2023-01-26T02:27:49.064Z,102073.44
2023-01-26T02:30:18.519Z,102064.28
2023-01-26T02:32:47.755Z,102069.66
2023-01-26T02:35:16.358Z,102062.53
2023-01-26T02:37:44.271Z,102051.00
2023-01-26T02:40:21.343Z,102054.22
2023-01-26T02:42:54.214Z,102062.78
2023-01-26T02:45:23.252Z,102059.25
2023-01-26T02:47:51.115Z,102047.00
2023-01-26T02:50:19.663Z,102041.31
2023-01-26T02:52:47.647Z,102044.06
2023-01-26T02:55:25.144Z,102045.81
2023-01-26T02:57:56.380Z,102045.03
2023-01-26T03:00:26.951Z,102049.28
2023-01-26T03:02:57.648Z,102041.34
2023-01-26T03:05:27.137Z,102043.31
2023-01-26T03:07:56.727Z,102041.31
2023-01-26T03:10:28.762Z,102048.13
2023-01-26T03:12:58.704Z,102044.94
2023-01-26T03:15:42.723Z,102044.84
2023-01-26T03:18:29.792Z,102041.34
2023-01-26T03:21:17.766Z,102040.16
2023-01-26T03:24:03.534Z,102036.19
2023-01-26T03:26:49.416Z,102043.22
2023-01-26T03:29:21.168Z,102038.88
2023-01-26T03:31:49.757Z,102035.41
2023-01-26T03:34:18.518Z,102031.13
2023-01-26T03:36:48.117Z,102033.72
2023-01-26T03:39:32.236Z,102025.63
2023-01-26T03:42:18.584Z,102031.78
2023-01-26T03:45:05.579Z,102022.16
2023-01-26T03:47:51.346Z,102028.09
2023-01-26T03:50:37.624Z,102039.38
2023-01-26T03:53:32.085Z,102034.28
2023-01-26T03:56:18.056Z,102028.47
2023-01-26T03:58:47.793Z,102043.53
2023-01-26T04:01:20.117Z,102036.19
2023-01-26T04:04:09.948Z,102033.09
2023-01-26T04:06:57.643Z,102028.69
2023-01-26T04:09:25.723Z,102025.44
2023-01-26T04:11:53.727Z,102032.91
2023-01-26T04:14:49.342Z,102029.22
2023-01-26T04:17:39.379Z,102017.63
2023-01-26T04:20:26.293Z,102015.41
2023-01-26T04:22:54.231Z,102005.59
2023-01-26T04:25:23.192Z,102010.06
2023-01-26T04:27:51.566Z,102004.28
2023-01-26T04:30:20.715Z,102005.06
2023-01-26T04:32:52.149Z,101996.22
2023-01-26T04:35:20.086Z,102001.41
2023-01-26T04:37:49.171Z,101996.56
2023-01-26T04:40:17.825Z,102006.53
2023-01-26T04:42:47.347Z,101991.97
2023-01-26T04:45:15.284Z,101991.69
2023-01-26T04:47:45.235Z,101990.31
2023-01-26T04:50:15.200Z,101993.97
2023-01-26T04:52:43.303Z,101988.41
2023-01-26T04:55:11.518Z,101994.81
2023-01-26T04:57:42.279Z,101987.22
2023-01-26T05:00:13.096Z,101980.56
2023-01-26T05:02:42.149Z,101973.53
2023-01-26T05:05:11.049Z,101980.00
2023-01-26T05:07:41.085Z,101978.81
2023-01-26T05:10:11.972Z,101977.75
2023-01-26T05:12:53.957Z,101971.81
2023-01-26T05:15:42.063Z,101977.03
2023-01-26T05:18:17.378Z,101978.72
2023-01-26T05:21:06.160Z,101981.97
2023-01-26T05:23:45.140Z,101977.09
2023-01-26T05:26:39.019Z,101987.56
2023-01-26T05:29:11.865Z,101973.22
2023-01-26T05:31:39.896Z,101976.34
2023-01-26T05:34:08.025Z,101973.34
2023-01-26T05:36:37.647Z,101977.72
2023-01-26T05:39:07.277Z,101987.50
2023-01-26T05:41:35.097Z,101976.03
2023-01-26T05:44:21.385Z,101974.22
2023-01-26T05:46:53.884Z,101981.94
2023-01-26T05:49:21.879Z,101987.88
2023-01-26T05:51:51.105Z,101987.19
2023-01-26T05:54:20.578Z,101988.50
2023-01-26T05:56:48.527Z,101997.78
2023-01-26T05:59:16.591Z,101994.56
2023-01-26T06:01:44.791Z,101995.94
2023-01-26T06:04:13.183Z,101993.19
2023-01-26T06:06:50.228Z,101995.25
2023-01-26T06:09:46.115Z,101989.81
2023-01-26T06:12:21.581Z,101989.75
2023-01-26T06:15:02.736Z,101992.22
2023-01-26T06:17:38.411Z,101985.91
2023-01-26T06:20:11.346Z,101991.09
2023-01-26T06:22:39.890Z,101997.69
2023-01-26T06:25:10.136Z,101988.59
2023-01-26T06:27:42.042Z,102000.16
2023-01-26T06:30:17.179Z,101996.88
2023-01-26T06:32:48.479Z,101995.34
2023-01-26T06:35:16.788Z,101999.03
2023-01-26T06:37:45.466Z,101982.66
2023-01-26T06:40:15.238Z,101984.50
2023-01-26T06:42:48.664Z,101987.38
2023-01-26T06:45:17.880Z,101995.75
2023-01-26T06:47:47.238Z,101995.09
2023-01-26T06:50:16.424Z,101995.34
2023-01-26T06:52:47.968Z,101998.63
2023-01-26T06:55:41.739Z,102006.28
2023-01-26T06:58:28.049Z,101996.97
2023-01-26T07:00:58.027Z,101997.78
2023-01-26T07:03:30.039Z,101997.28
2023-01-26T07:05:57.905Z,101987.75
2023-01-26T07:08:25.915Z,101991.72
2023-01-26T07:10:55.121Z,101998.44
2023-01-26T07:13:23.015Z,101995.00
2023-01-26T07:15:50.861Z,101992.38
2023-01-26T07:18:18.752Z,101994.88
2023-01-26T07:20:46.736Z,101997.78
2023-01-26T07:23:14.624Z,101994.03
2023-01-26T07:25:44.535Z,102002.06
2023-01-26T07:28:13.771Z,102001.00
2023-01-26T07:30:41.812Z,101999.75
2023-01-26T07:33:09.762Z,101994.38
2023-01-26T07:35:37.665Z,101999.00
2023-01-26T07:38:06.049Z,102001.75
2023-01-26T07:40:34.320Z,102005.53
2023-01-26T07:43:02.243Z,102006.38
2023-01-26T07:45:52.495Z,102004.34
2023-01-26T07:48:21.819Z,102003.03
2023-01-26T07:50:50.060Z,102004.84
2023-01-26T07:53:21.253Z,102005.47
2023-01-26T07:55:49.596Z,101999.16
2023-01-26T07:58:18.543Z,102002.53
2023-01-26T08:00:47.786Z,102010.00
2023-01-26T08:03:17.067Z,102005.69
2023-01-26T08:05:44.939Z,102013.44
2023-01-26T08:08:12.968Z,102013.31
2023-01-26T08:10:40.789Z,102017.13
2023-01-26T08:13:08.910Z,102019.44
2023-01-26T08:15:36.771Z,102016.47
2023-01-26T08:18:05.106Z,102026.19
2023-01-26T08:20:34.388Z,102019.09
2023-01-26T08:23:02.284Z,102020.19
2023-01-26T08:25:31.623Z,102016.47
2023-01-26T08:27:59.523Z,102020.41
2023-01-26T08:30:27.414Z,102021.66
2023-01-26T08:32:55.363Z,102021.09
2023-01-26T08:35:23.218Z,102017.28
2023-01-26T08:37:52.551Z,102015.03
2023-01-26T08:40:20.617Z,102012.31
2023-01-26T08:42:48.507Z,102005.91
2023-01-26T08:45:19.843Z,102006.78
2023-01-26T08:47:50.465Z,102009.16
2023-01-26T08:50:18.605Z,102010.31
2023-01-26T08:52:46.743Z,102013.31
2023-01-26T08:55:16.479Z,102015.47
2023-01-26T08:57:47.239Z,102013.50
2023-01-26T09:00:16.790Z,102015.22
2023-01-26T09:02:44.937Z,102024.00
2023-01-26T09:05:12.877Z,102019.41
2023-01-26T09:07:40.735Z,102023.84
2023-01-26T09:10:10.720Z,102019.88
2023-01-26T09:12:41.223Z,102025.28
2023-01-26T09:15:10.333Z,102031.97
2023-01-26T09:17:38.488Z,102028.69
2023-01-26T09:20:08.419Z,102039.00
2023-01-26T09:22:36.471Z,102033.56
2023-01-26T09:25:05.129Z,102029.13
2023-01-26T09:27:33.053Z,102029.69
2023-01-26T09:30:02.770Z,102038.19
2023-01-26T09:32:31.041Z,102035.59
2023-01-26T09:34:58.961Z,102028.75
2023-01-26T09:37:26.982Z,102031.34
2023-01-26T09:39:54.878Z,102028.22
2023-01-26T09:42:42.094Z,102028.69
2023-01-26T09:45:28.641Z,102038.72
2023-01-26T09:48:25.384Z,102036.50
2023-01-26T09:50:59.124Z,102024.78
2023-01-26T09:53:29.938Z,102030.75
2023-01-26T09:55:57.882Z,102035.25
2023-01-26T09:58:35.681Z,102036.22
2023-01-26T10:01:06.684Z,102026.75
2023-01-26T10:03:40.543Z,102029.41
2023-01-26T10:06:17.322Z,102028.47
2023-01-26T10:09:15.731Z,102027.13
2023-01-26T10:11:47.768Z,102020.16
2023-01-26T10:14:22.512Z,102021.72
2023-01-26T10:16:54.262Z,102012.63
2023-01-26T10:19:33.965Z,102020.31
2023-01-26T10:22:07.367Z,102012.09
2023-01-26T10:24:35.709Z,102001.44
2023-01-26T10:27:03.685Z,102006.75
2023-01-26T10:29:31.539Z,102001.97
2023-01-26T10:32:00.808Z,102003.03
2023-01-26T10:34:29.793Z,101995.56
2023-01-26T10:37:03.489Z,102005.81
2023-01-26T10:39:31.372Z,101986.56
2023-01-26T10:42:01.545Z,101984.41
2023-01-26T10:44:35.298Z,101972.75
2023-01-26T10:47:07.472Z,101964.06
2023-01-26T10:49:35.340Z,101962.75
2023-01-26T10:52:09.644Z,101962.94
2023-01-26T10:54:39.589Z,101954.75
2023-01-26T10:57:18.593Z,101951.72
2023-01-26T10:59:54.732Z,101950.28
2023-01-26T11:02:28.279Z,101967.84
2023-01-26T11:05:16.341Z,101954.44
2023-01-26T11:07:45.299Z,101953.31
2023-01-26T11:10:26.867Z,101961.63
2023-01-26T11:13:16.586Z,101956.47
2023-01-26T11:15:47.693Z,101960.50
2023-01-26T11:18:37.181Z,101949.06
2023-01-26T11:21:11.502Z,101948.19
2023-01-26T11:23:50.847Z,101949.53
2023-01-26T11:26:32.852Z,101947.00
2023-01-26T11:29:18.766Z,101935.56
2023-01-26T11:31:58.509Z,101947.13
2023-01-26T11:34:35.350Z,101943.28
2023-01-26T11:37:34.234Z,101942.50
2023-01-26T11:40:18.637Z,101933.78
2023-01-26T11:42:58.107Z,101931.13
2023-01-26T11:45:34.180Z,101928.69
2023-01-26T11:48:18.252Z,101927.63
2023-01-26T11:50:54.221Z,101932.22
2023-01-26T11:53:46.532Z,101924.03
2023-01-26T11:56:26.495Z,101923.03
2023-01-26T11:58:59.506Z,101903.72
2023-01-26T12:01:31.898Z,101909.31
2023-01-26T12:03:59.806Z,101900.19
2023-01-26T12:06:37.471Z,101900.91
2023-01-26T12:09:10.731Z,101895.59
2023-01-26T12:11:43.093Z,101891.31
2023-01-26T12:14:19.879Z,101892.88
2023-01-26T12:17:16.886Z,101894.91
2023-01-26T12:19:53.500Z,101889.44
2023-01-26T12:22:29.869Z,101884.03
2023-01-26T12:25:28.755Z,101876.41
2023-01-26T12:27:59.988Z,101861.00
2023-01-26T12:30:37.855Z,101869.78
2023-01-26T12:33:06.330Z,101864.16
2023-01-26T12:35:48.047Z,101863.00
2023-01-26T12:38:24.343Z,101864.50
2023-01-26T12:41:04.842Z,101863.22
2023-01-26T12:43:46.948Z,101863.59
2023-01-26T12:46:16.342Z,101856.06
2023-01-26T12:48:49.939Z,101856.66
2023-01-26T12:51:24.366Z,101853.91
2023-01-26T12:53:59.938Z,101850.50
2023-01-26T12:56:32.998Z,101859.13
2023-01-26T12:59:06.670Z,101854.38
2023-01-26T13:01:40.768Z,101857.06
2023-01-26T13:04:12.380Z,101852.94
2023-01-26T13:06:40.572Z,101857.13
2023-01-26T13:09:22.910Z,101851.84
2023-01-26T13:11:53.611Z,101849.88
2023-01-26T13:14:26.731Z,101867.59
2023-01-26T13:16:55.176Z,101868.84
2023-01-26T13:19:37.554Z,101873.22
2023-01-26T13:22:25.529Z,101868.22
2023-01-26T13:24:59.700Z,101864.00
2023-01-26T13:27:33.627Z,101862.13
2023-01-26T13:30:02.031Z,101870.94
2023-01-26T13:33:05.446Z,101877.34
2023-01-26T13:35:34.550Z,101879.91
2023-01-26T13:38:11.691Z,101886.75
2023-01-26T13:40:43.832Z,101885.47
2023-01-26T13:43:26.599Z,101882.84
2023-01-26T13:46:12.438Z,101883.00
2023-01-26T13:48:46.455Z,101890.81
2023-01-26T13:51:19.991Z,101890.31
2023-01-26T13:53:57.376Z,101890.19
2023-01-26T13:56:30.024Z,101892.28
2023-01-26T13:59:10.799Z,101891.94
2023-01-26T14:01:43.706Z,101890.47
2023-01-26T14:04:16.305Z,101897.06
2023-01-26T14:06:48.572Z,101890.53
2023-01-26T14:09:17.265Z,101889.16
2023-01-26T14:11:55.149Z,101890.97
2023-01-26T14:14:26.806Z,101886.38
2023-01-26T14:16:55.582Z,101892.94
2023-01-26T14:19:24.435Z,101890.56
2023-01-26T14:21:54.982Z,101890.63
2023-01-26T14:24:27.505Z,101894.88
2023-01-26T14:26:57.463Z,101900.34
2023-01-26T14:29:31.232Z,101891.03
2023-01-26T14:32:16.783Z,101892.53
2023-01-26T14:34:53.531Z,101891.53
2023-01-26T14:37:21.873Z,101894.38
2023-01-26T14:39:51.304Z,101894.53
2023-01-26T14:42:22.453Z,101892.84
2023-01-26T14:44:50.599Z,101890.03
2023-01-26T14:47:24.385Z,101896.84
2023-01-26T14:50:01.812Z,101891.94
2023-01-26T14:52:34.788Z,101896.59
2023-01-26T14:55:07.507Z,101895.72
2023-01-26T14:57:37.174Z,101887.34
2023-01-26T15:00:10.189Z,101887.13
2023-01-26T15:02:39.354Z,101886.03
2023-01-26T15:05:29.143Z,101888.25
2023-01-26T15:08:00.026Z,101893.56
2023-01-26T15:10:34.684Z,101892.59
2023-01-26T15:13:08.008Z,101897.41
2023-01-26T15:15:38.914Z,101901.63
2023-01-26T15:18:18.135Z,101899.19
2023-01-26T15:20:51.031Z,101897.28
2023-01-26T15:23:28.365Z,101896.41
2023-01-26T15:25:57.164Z,101906.09
2023-01-26T15:28:27.272Z,101908.69
2023-01-26T15:30:57.559Z,101912.41
2023-01-26T15:33:50.373Z,101915.31
2023-01-26T15:36:30.195Z,101916.34
2023-01-26T15:39:01.935Z,101915.25
2023-01-26T15:41:31.986Z,101918.19
2023-01-26T15:44:01.461Z,101914.50
2023-01-26T15:46:31.500Z,101914.66
2023-01-26T15:48:59.743Z,101920.13
2023-01-26T15:51:33.129Z,101927.09
2023-01-26T15:54:00.827Z,101920.66
2023-01-26T15:56:29.321Z,101924.19
2023-01-26T15:58:57.218Z,101923.25
2023-01-26T16:01:26.672Z,101926.59
2023-01-26T16:03:54.766Z,101923.66
2023-01-26T16:06:27.641Z,101925.75
2023-01-26T16:08:57.093Z,101919.81
2023-01-26T16:11:29.805Z,101921.66
2023-01-26T16:14:03.534Z,101933.03
2023-01-26T16:16:33.959Z,101924.56
2023-01-26T16:19:02.199Z,101927.94
2023-01-26T16:21:40.739Z,101928.00
2023-01-26T16:24:11.128Z,101929.91
2023-01-26T16:26:39.687Z,101930.34
2023-01-26T16:29:08.060Z,101925.16
2023-01-26T16:31:37.516Z,101917.00
2023-01-26T16:34:05.945Z,101925.78
2023-01-26T16:36:33.956Z,101918.47
2023-01-26T16:39:01.873Z,101929.47
2023-01-26T16:41:32.086Z,101921.34
2023-01-26T16:44:01.862Z,101920.09
2023-01-26T16:46:31.235Z,101911.97
2023-01-26T16:49:04.125Z,101915.19
2023-01-26T16:51:37.528Z,101913.16
2023-01-26T16:54:05.936Z,101915.72
2023-01-26T16:56:33.778Z,101919.78
2023-01-26T16:59:01.689Z,101910.38
2023-01-26T17:01:34.332Z,101916.44
2023-01-26T17:04:04.317Z,101918.00
2023-01-26T17:06:32.472Z,101914.66
2023-01-26T17:09:00.484Z,101919.53
2023-01-26T17:11:30.281Z,101917.53
2023-01-26T17:13:59.330Z,101910.91
2023-01-26T17:16:32.051Z,101913.19
2023-01-26T17:19:00.401Z,101908.72
2023-01-26T17:21:29.775Z,101910.41
2023-01-26T17:23:58.938Z,101910.22
2023-01-26T17:26:27.122Z,101911.09
2023-01-26T17:28:56.618Z,101909.56
2023-01-26T17:31:25.269Z,101915.63
2023-01-26T17:33:53.561Z,101910.91
2023-01-26T17:36:22.031Z,101909.50
2023-01-26T17:38:51.272Z,101909.44
2023-01-26T17:41:19.382Z,101913.81
2023-01-26T17:43:48.124Z,101916.94
2023-01-26T17:46:18.521Z,101918.22
2023-01-26T17:48:47.276Z,101931.72
2023-01-26T17:51:17.512Z,101932.25
2023-01-26T17:53:47.066Z,101929.47
2023-01-26T17:56:18.073Z,101927.66
2023-01-26T17:58:49.498Z,101924.00
2023-01-26T18:01:17.724Z,101934.84
2023-01-26T18:03:47.049Z,101937.28
2023-01-26T18:06:15.254Z,101943.53
2023-01-26T18:08:43.630Z,101942.47
2023-01-26T18:11:13.395Z,101949.41
2023-01-26T18:13:43.256Z,101952.38
2023-01-26T18:16:15.094Z,101942.63
2023-01-26T18:18:43.074Z,101950.75
2023-01-26T18:21:12.751Z,101943.66
2023-01-26T18:23:40.784Z,101944.47
2023-01-26T18:26:08.623Z,101946.09
2023-01-26T18:28:36.496Z,101937.72
2023-01-26T18:31:11.368Z,101937.84
2023-01-26T18:33:39.785Z,101943.59
2023-01-26T18:36:11.853Z,101937.56
2023-01-26T18:38:40.255Z,101929.53
2023-01-26T18:41:12.222Z,101935.41
2023-01-26T18:43:40.916Z,101936.78
2023-01-26T18:46:11.817Z,101941.53
2023-01-26T18:48:39.796Z,101940.06
2023-01-26T18:51:08.654Z,101939.06
2023-01-26T18:53:38.635Z,101944.88
2023-01-26T18:56:09.167Z,101949.97
2023-01-26T18:58:38.143Z,101939.94
2023-01-26T19:01:09.761Z,101951.41
2023-01-26T19:03:41.613Z,101949.84
2023-01-26T19:06:10.225Z,101952.97
2023-01-26T19:08:40.265Z,101945.25
2023-01-26T19:11:09.322Z,101949.56
2023-01-26T19:13:41.925Z,101958.78
2023-01-26T19:16:10.317Z,101955.81
2023-01-26T19:18:39.561Z,101961.72
2023-01-26T19:21:07.400Z,101965.81
2023-01-26T19:23:37.517Z,101965.72
2023-01-26T19:26:10.966Z,101969.00
2023-01-26T19:28:40.905Z,101968.31
2023-01-26T19:31:09.559Z,101960.53
2023-01-26T19:33:39.212Z,101956.31
2023-01-26T19:36:08.685Z,101955.03
2023-01-26T19:38:39.398Z,101956.31
2023-01-26T19:41:07.704Z,101959.66
2023-01-26T19:43:35.998Z,101956.66
2023-01-26T19:46:05.689Z,101959.75
2023-01-26T19:48:33.820Z,101957.91
2023-01-26T19:51:05.401Z,101959.38
2023-01-26T19:53:33.839Z,101950.44
2023-01-26T19:56:07.058Z,101961.13
2023-01-26T19:58:35.564Z,101960.06
2023-01-26T20:01:05.291Z,101957.66
2023-01-26T20:03:33.312Z,101962.03
2023-01-26T20:06:01.450Z,101955.66
2023-01-26T20:08:31.529Z,101959.22
2023-01-26T20:11:10.200Z,101958.84
2023-01-26T20:13:38.548Z,101958.81
2023-01-26T20:16:08.197Z,101955.03
2023-01-26T20:18:36.447Z,101951.19
2023-01-26T20:21:06.518Z,101967.50
2023-01-26T20:23:36.533Z,101958.50
2023-01-26T20:26:06.103Z,101962.84
2023-01-26T20:28:34.164Z,101955.66
2023-01-26T20:31:07.576Z,101967.47
2023-01-26T20:33:36.250Z,101966.09
2023-01-26T20:36:07.461Z,101963.13
2023-01-26T20:38:37.264Z,101961.34
2023-01-26T20:41:08.976Z,101966.34
2023-01-26T20:43:39.601Z,101969.84
2023-01-26T20:46:11.591Z,101968.75
2023-01-26T20:48:39.936Z,101963.44
2023-01-26T20:51:13.535Z,101966.00
2023-01-26T20:53:43.367Z,101962.88
2023-01-26T20:56:12.594Z,101970.22
2023-01-26T20:58:42.529Z,101967.28
2023-01-26T21:01:12.708Z,101967.84
2023-01-26T21:03:41.640Z,101965.16
2023-01-26T21:06:11.212Z,101964.88
2023-01-26T21:08:39.818Z,101972.03
2023-01-26T21:11:12.790Z,101967.47
2023-01-26T21:13:42.274Z,101968.38
2023-01-26T21:16:11.058Z,101961.00
2023-01-26T21:18:38.940Z,101966.22
2023-01-26T21:21:09.549Z,101967.88
2023-01-26T21:23:37.508Z,101978.59
2023-01-26T21:26:08.188Z,101962.72
2023-01-26T21:28:37.480Z,101966.22
2023-01-26T21:31:07.862Z,101964.31
2023-01-26T21:33:39.102Z,101968.47
2023-01-26T21:36:08.768Z,101966.84
2023-01-26T21:38:40.128Z,101963.22
2023-01-26T21:41:30.496Z,101963.41
2023-01-26T21:44:01.703Z,101961.72
2023-01-26T21:46:30.084Z,101957.03
2023-01-26T21:48:58.182Z,101954.31
2023-01-26T21:51:43.920Z,101956.75
2023-01-26T21:54:11.895Z,101952.81
2023-01-26T21:56:40.161Z,101949.84
2023-01-26T21:59:11.292Z,101955.50
2023-01-26T22:01:41.639Z,101961.72
2023-01-26T22:04:12.332Z,101954.63
2023-01-26T22:06:40.444Z,101962.72
2023-01-26T22:09:12.110Z,101967.88
2023-01-26T22:11:40.435Z,101985.03
2023-01-26T22:14:15.209Z,101976.78
2023-01-26T22:16:43.604Z,101968.56
2023-01-26T22:19:12.491Z,101979.38
2023-01-26T22:21:40.475Z,101982.38
2023-01-26T22:24:11.731Z,101976.63
2023-01-26T22:26:40.275Z,101975.06
2023-01-26T22:29:11.453Z,101979.91
2023-01-26T22:31:39.464Z,101979.13
2023-01-26T22:34:07.416Z,101976.97
2023-01-26T22:36:35.425Z,101986.41
2023-01-26T22:39:03.420Z,101980.47
2023-01-26T22:41:31.716Z,101972.91
2023-01-26T22:44:00.916Z,101969.78
2023-01-26T22:46:31.594Z,101976.16
2023-01-26T22:49:00.471Z,101970.34
2023-01-26T22:51:30.270Z,101970.59
2023-01-26T22:54:00.233Z,101968.44
2023-01-26T22:56:28.576Z,101964.06
2023-01-26T22:59:00.149Z,101967.63
2023-01-26T23:01:31.438Z,101976.56
2023-01-26T23:04:01.000Z,101977.06
2023-01-26T23:06:29.475Z,101973.75
2023-01-26T23:08:58.270Z,101960.06
2023-01-26T23:11:27.941Z,101964.59
2023-01-26T23:13:57.196Z,101962.03
2023-01-26T23:16:26.188Z,101960.06
2023-01-26T23:18:58.157Z,101960.16
2023-01-26T23:21:27.162Z,101965.72
2023-01-26T23:23:55.144Z,101957.63
2023-01-26T23:26:23.710Z,101954.22
2023-01-26T23:28:51.574Z,101948.63
2023-01-26T23:31:20.360Z,101960.38
2023-01-26T23:33:48.762Z,101957.69
2023-01-26T23:36:18.035Z,101970.09
2023-01-26T23:38:46.379Z,101969.31
2023-01-26T23:41:14.597Z,101967.09
2023-01-26T23:43:42.753Z,101966.34
2023-01-26T23:46:11.683Z,101957.41
2023-01-26T23:48:39.970Z,101964.81
2023-01-26T23:51:10.057Z,101965.69
2023-01-26T23:53:39.782Z,101964.28
2023-01-26T23:56:14.668Z,101957.44
2023-01-26T23:58:42.990Z,101959.13
